Time;durP1;ratioP1;P1;durP2;ratioP2;P2;SDS_P1;SDS_P2;PMS_P1;PMS_P2;Temp;Humidity;BMP_temperature;BMP_pressure;BME280_temperature;BME280_humidity;BME280_pressure;Samples;Min_cycle;Max_cycle;Signal;HPM_P1;HPM_P2
2023/07/09 00:02:25;;;;;;;6.30;5.20;;;25.30;99.90;;;;;;5068147;28;20480;-71
2023/07/09 00:04:52;;;;;;;6.80;5.18;;;25.20;99.90;;;;;;5107106;27;20415;-71
2023/07/09 00:07:33;;;;;;;7.22;5.10;;;25.20;99.90;;;;;;5090057;28;20420;-71
2023/07/09 00:10:00;;;;;;;9.00;4.97;;;25.10;99.90;;;;;;5071192;28;20409;-71
2023/07/09 00:12:27;;;;;;;5.93;5.22;;;25.00;99.90;;;;;;5074356;28;20404;-71
2023/07/09 00:14:54;;;;;;;7.45;5.47;;;25.00;99.90;;;;;;5099691;27;20412;-71
2023/07/09 00:17:33;;;;;;;7.20;5.13;;;25.00;99.90;;;;;;5071492;28;21450;-71
2023/07/09 00:20:00;;;;;;;6.40;4.88;;;25.00;99.90;;;;;;5066354;28;20437;-71
2023/07/09 00:22:29;;;;;;;7.78;5.45;;;24.90;99.90;;;;;;5072608;28;20412;-71
2023/07/09 00:24:56;;;;;;;6.40;5.13;;;24.90;99.90;;;;;;5075969;28;20412;-71
2023/07/09 00:27:28;;;;;;;8.40;5.25;;;24.90;99.90;;;;;;5071199;28;20423;-71
2023/07/09 00:29:54;;;;;;;7.68;5.05;;;24.90;99.90;;;;;;5071006;28;20451;-71
2023/07/09 00:32:21;;;;;;;6.85;5.35;;;24.90;99.90;;;;;;5070513;28;20417;-71
2023/07/09 00:34:48;;;;;;;8.02;5.80;;;24.90;99.90;;;;;;5081490;28;20397;-71
2023/07/09 00:37:21;;;;;;;7.93;5.20;;;24.90;99.90;;;;;;5067982;28;20407;-71
2023/07/09 00:39:48;;;;;;;7.28;5.20;;;24.90;99.90;;;;;;5071827;28;20573;-71
2023/07/09 00:42:21;;;;;;;9.30;5.38;;;24.90;99.90;;;;;;5064775;28;20442;-71
2023/07/09 00:44:51;;;;;;;7.78;5.03;;;24.80;99.90;;;;;;5070314;28;20417;-71
2023/07/09 00:47:35;;;;;;;7.05;5.40;;;24.80;99.90;;;;;;5073587;28;20509;-71
2023/07/09 00:50:17;;;;;;;6.22;5.28;;;24.70;99.90;;;;;;5070563;28;20462;-71
2023/07/09 00:52:53;;;;;;;6.97;5.30;;;24.70;99.90;;;;;;5070512;28;20522;-71
2023/07/09 00:55:26;;;;;;;7.45;5.30;;;24.70;99.90;;;;;;5071060;28;20407;-71
2023/07/09 00:57:59;;;;;;;15.50;5.30;;;24.70;99.90;;;;;;5070740;28;20407;-71
2023/07/09 01:00:52;;;;;;;9.23;5.40;;;24.70;99.90;;;;;;5070964;28;20421;-71
2023/07/09 01:03:59;;;;;;;6.93;5.20;;;24.70;99.90;;;;;;5071445;28;20415;-71
2023/07/09 01:06:54;;;;;;;9.85;5.40;;;24.70;99.90;;;;;;5054775;28;21138;-71
2023/07/09 01:09:23;;;;;;;8.70;5.40;;;24.60;99.90;;;;;;5071163;28;20407;-71
2023/07/09 01:11:49;;;;;;;8.23;5.38;;;24.50;99.90;;;;;;5069913;28;20449;-71
2023/07/09 01:14:21;;;;;;;8.90;5.40;;;24.50;99.90;;;;;;5075477;28;20443;-73
2023/07/09 01:16:56;;;;;;;6.75;5.35;;;24.40;99.90;;;;;;5073431;28;20422;-72
2023/07/09 01:19:25;;;;;;;8.43;5.30;;;24.30;99.90;;;;;;5072801;28;20422;-72
2023/07/09 01:22:00;;;;;;;7.93;5.93;;;24.20;99.90;;;;;;5074135;28;20411;-72
2023/07/09 01:25:00;;;;;;;10.93;5.90;;;24.10;99.90;;;;;;5076408;28;20412;-72
2023/07/09 01:27:37;;;;;;;8.93;5.30;;;24.10;99.90;;;;;;5074521;28;20467;-72
2023/07/09 01:30:11;;;;;;;7.15;5.28;;;24.10;99.90;;;;;;5077419;28;20417;-72
2023/07/09 01:32:38;;;;;;;10.88;5.57;;;24.10;99.90;;;;;;5069967;28;20783;-72
2023/07/09 01:35:06;;;;;;;8.73;5.30;;;24.00;99.90;;;;;;5075831;28;21007;-72
2023/07/09 01:37:37;;;;;;;7.25;5.55;;;23.90;99.90;;;;;;5072772;28;20541;-73
2023/07/09 01:40:07;;;;;;;8.77;5.38;;;23.90;99.90;;;;;;5069800;28;20451;-72
2023/07/09 01:42:33;;;;;;;7.35;5.28;;;23.80;99.90;;;;;;5101266;27;20410;-72
2023/07/09 01:45:03;;;;;;;8.40;5.72;;;23.70;99.90;;;;;;5072122;28;20445;-72
2023/07/09 01:47:30;;;;;;;9.52;5.68;;;23.60;99.90;;;;;;5070859;28;20428;-72
2023/07/09 01:49:57;;;;;;;7.83;5.57;;;23.60;99.90;;;;;;5098832;27;20414;-72
2023/07/09 01:52:27;;;;;;;6.88;5.65;;;23.60;99.90;;;;;;5071577;28;20407;-72
2023/07/09 01:54:53;;;;;;;6.72;5.15;;;23.60;99.90;;;;;;5063617;28;20495;-72
2023/07/09 01:57:32;;;;;;;7.40;5.90;;;23.60;99.90;;;;;;5066970;28;20457;-72
2023/07/09 02:00:04;;;;;;;7.17;5.50;;;23.60;99.90;;;;;;5079344;28;20435;-72
2023/07/09 02:02:32;;;;;;;6.70;5.50;;;23.70;99.90;;;;;;5072553;28;20407;-72
2023/07/09 02:05:00;;;;;;;11.52;5.68;;;23.80;99.90;;;;;;5074575;28;20421;-73
2023/07/09 02:07:27;;;;;;;9.30;5.40;;;23.80;99.90;;;;;;5071166;28;20541;-72
2023/07/09 02:09:54;;;;;;;7.07;5.30;;;23.80;99.90;;;;;;5070710;28;20435;-73
2023/07/09 02:12:20;;;;;;;6.72;5.60;;;23.70;99.90;;;;;;5059011;28;20950;-72
2023/07/09 02:14:47;;;;;;;8.25;5.55;;;23.60;99.90;;;;;;5078119;28;20413;-72
2023/07/09 02:17:15;;;;;;;8.00;6.07;;;23.50;99.90;;;;;;5068515;28;20409;-72
2023/07/09 02:19:41;;;;;;;9.90;5.60;;;23.50;99.90;;;;;;5071377;28;20942;-72
2023/07/09 02:22:09;;;;;;;8.00;5.80;;;23.50;99.90;;;;;;5090940;28;20471;-72
2023/07/09 02:24:36;;;;;;;7.95;5.32;;;23.50;99.90;;;;;;5071056;28;20415;-72
2023/07/09 02:27:07;;;;;;;9.20;5.80;;;23.50;99.90;;;;;;5073856;28;20441;-72
2023/07/09 02:29:34;;;;;;;8.70;5.85;;;23.50;99.90;;;;;;5095210;27;21068;-72
2023/07/09 02:32:01;;;;;;;7.90;5.18;;;23.40;99.90;;;;;;5072144;28;20862;-72
2023/07/09 02:34:30;;;;;;;11.40;6.00;;;23.50;99.90;;;;;;5075692;28;20863;-72
2023/07/09 02:36:58;;;;;;;10.65;6.13;;;23.40;99.90;;;;;;5073290;28;20511;-72
2023/07/09 02:39:26;;;;;;;8.60;5.85;;;23.30;99.90;;;;;;5068305;28;20430;-72
2023/07/09 02:41:52;;;;;;;9.93;5.93;;;23.30;99.90;;;;;;5067362;28;20418;-73
2023/07/09 02:44:18;;;;;;;9.27;6.10;;;23.30;99.90;;;;;;5104009;27;20421;-72
2023/07/09 02:46:46;;;;;;;8.02;5.97;;;23.30;99.90;;;;;;5073615;28;20451;-72
2023/07/09 02:49:16;;;;;;;8.50;5.85;;;23.20;99.90;;;;;;5070351;28;20424;-72
2023/07/09 02:51:42;;;;;;;10.68;5.90;;;23.20;99.90;;;;;;5085705;28;20487;-72
2023/07/09 02:54:09;;;;;;;10.02;6.03;;;23.10;99.90;;;;;;5074729;28;20493;-72
2023/07/09 02:56:35;;;;;;;8.35;5.97;;;23.10;99.90;;;;;;5083529;28;20422;-72
2023/07/09 02:59:02;;;;;;;8.93;6.10;;;23.10;99.90;;;;;;5068491;28;20405;-72
2023/07/09 03:01:28;;;;;;;8.13;5.88;;;23.10;99.90;;;;;;5089934;27;20415;-72
2023/07/09 03:03:59;;;;;;;8.98;6.30;;;23.10;99.90;;;;;;5072911;28;20431;-72
2023/07/09 03:06:26;;;;;;;8.88;6.03;;;23.20;99.90;;;;;;5072653;28;20431;-72
2023/07/09 03:08:53;;;;;;;8.65;6.35;;;23.20;99.90;;;;;;5057907;28;20411;-72
2023/07/09 03:11:21;;;;;;;9.48;6.50;;;23.30;99.90;;;;;;5097472;27;20958;-71
2023/07/09 03:13:47;;;;;;;9.20;6.13;;;23.30;99.90;;;;;;5074350;28;20420;-71
2023/07/09 03:16:15;;;;;;;9.27;6.50;;;23.30;99.90;;;;;;5072437;28;20409;-72
2023/07/09 03:18:42;;;;;;;10.20;6.82;;;23.40;99.90;;;;;;5074577;28;20486;-72
2023/07/09 03:21:08;;;;;;;9.97;6.43;;;23.40;99.90;;;;;;5090973;27;20428;-72
2023/07/09 03:23:34;;;;;;;9.05;6.93;;;23.50;99.90;;;;;;5054353;28;20821;-71
2023/07/09 03:26:00;;;;;;;9.77;6.80;;;23.60;99.90;;;;;;5099267;27;20746;-72
2023/07/09 03:28:27;;;;;;;13.48;7.40;;;23.60;99.90;;;;;;5069499;28;20427;-72
2023/07/09 03:30:55;;;;;;;11.23;7.50;;;23.60;99.90;;;;;;5072942;28;21115;-72
2023/07/09 03:33:23;;;;;;;9.88;6.90;;;23.70;99.90;;;;;;5067511;28;20405;-72
2023/07/09 03:35:51;;;;;;;13.45;7.65;;;23.70;99.90;;;;;;5068097;28;20483;-71
2023/07/09 03:38:17;;;;;;;10.25;7.43;;;23.80;99.90;;;;;;5064110;28;20409;-71
2023/07/09 03:40:44;;;;;;;12.45;7.50;;;23.80;99.90;;;;;;5058254;28;20437;-71
2023/07/09 03:43:11;;;;;;;10.75;7.65;;;23.70;99.90;;;;;;5073963;28;21385;-71
2023/07/09 03:45:38;;;;;;;13.85;7.78;;;23.80;99.90;;;;;;5065704;28;20415;-71
2023/07/09 03:48:06;;;;;;;13.55;7.90;;;23.80;99.90;;;;;;5066845;28;20536;-71
2023/07/09 03:50:33;;;;;;;10.63;7.30;;;23.90;99.90;;;;;;5075369;28;20488;-71
2023/07/09 03:53:00;;;;;;;12.75;7.80;;;23.90;99.90;;;;;;5070191;28;20412;-71
2023/07/09 03:55:26;;;;;;;10.45;7.40;;;24.00;99.90;;;;;;5052659;28;21000;-71
2023/07/09 03:57:55;;;;;;;13.63;7.72;;;24.00;99.90;;;;;;5066131;28;20407;-71
2023/07/09 04:00:21;;;;;;;8.77;7.40;;;24.10;99.90;;;;;;5095684;27;20407;-71
2023/07/09 04:02:48;;;;;;;11.30;7.95;;;24.10;99.90;;;;;;5099483;27;20409;-71
2023/07/09 04:05:15;;;;;;;11.38;7.80;;;24.10;99.90;;;;;;5064771;28;20410;-71
2023/07/09 04:07:41;;;;;;;10.60;7.85;;;24.10;99.90;;;;;;5067465;28;20446;-71
2023/07/09 04:10:08;;;;;;;13.50;8.15;;;24.10;99.90;;;;;;5068643;28;20416;-71
2023/07/09 04:12:34;;;;;;;11.15;7.85;;;24.20;99.90;;;;;;5070248;28;20419;-71
2023/07/09 04:15:01;;;;;;;15.40;8.60;;;24.20;99.90;;;;;;5087797;28;20415;-71
2023/07/09 04:17:27;;;;;;;13.43;8.32;;;24.20;99.90;;;;;;5079227;28;20411;-71
2023/07/09 04:19:53;;;;;;;11.65;8.30;;;24.30;99.90;;;;;;5063103;28;20417;-71
2023/07/09 04:22:19;;;;;;;14.70;8.68;;;24.40;99.90;;;;;;5073858;28;20823;-71
2023/07/09 04:24:45;;;;;;;14.60;8.40;;;24.50;99.90;;;;;;5075385;28;20417;-71
2023/07/09 04:27:13;;;;;;;12.05;7.72;;;24.50;99.90;;;;;;5065250;28;20420;-71
2023/07/09 04:29:40;;;;;;;10.55;6.82;;;24.50;99.90;;;;;;5069393;28;20404;-71
2023/07/09 04:32:11;;;;;;;8.40;6.63;;;24.50;99.90;;;;;;5077312;28;20412;-71
2023/07/09 04:34:39;;;;;;;12.87;6.90;;;24.50;99.90;;;;;;5102028;27;20406;-72
2023/07/09 04:37:11;;;;;;;8.65;6.70;;;24.50;99.90;;;;;;5067238;28;20413;-71
2023/07/09 04:39:39;;;;;;;9.10;6.93;;;24.50;99.90;;;;;;5070436;28;20423;-71
2023/07/09 04:42:10;;;;;;;13.15;6.47;;;24.60;99.90;;;;;;5074280;28;20435;-71
2023/07/09 04:44:36;;;;;;;11.60;6.65;;;24.60;99.90;;;;;;5072921;28;20412;-71
2023/07/09 04:47:03;;;;;;;8.35;6.40;;;24.70;99.90;;;;;;5075758;28;21137;-71
2023/07/09 04:49:29;;;;;;;8.50;6.35;;;24.70;99.90;;;;;;5059975;28;20402;-71
2023/07/09 04:51:56;;;;;;;13.00;7.00;;;24.70;99.90;;;;;;5070230;28;20970;-71
2023/07/09 04:54:23;;;;;;;9.17;6.30;;;24.80;99.90;;;;;;5072853;28;20499;-71
2023/07/09 04:56:50;;;;;;;9.57;6.57;;;24.90;99.90;;;;;;5072149;28;20449;-72
2023/07/09 04:59:16;;;;;;;12.75;7.05;;;24.90;99.90;;;;;;5071383;28;20514;-71
2023/07/09 05:01:42;;;;;;;10.48;6.70;;;24.90;99.90;;;;;;5059143;28;20938;-71
2023/07/09 05:04:09;;;;;;;10.07;6.50;;;25.00;99.90;;;;;;5069701;28;20462;-71
2023/07/09 05:06:36;;;;;;;10.80;6.88;;;25.10;99.90;;;;;;5076068;28;20410;-71
2023/07/09 05:09:02;;;;;;;10.87;6.80;;;25.20;99.90;;;;;;5068831;28;20403;-71
2023/07/09 05:11:29;;;;;;;10.60;6.43;;;25.20;99.90;;;;;;5065491;28;20483;-71
2023/07/09 05:13:55;;;;;;;12.93;6.70;;;25.20;99.90;;;;;;5082072;27;20913;-71
2023/07/09 05:16:21;;;;;;;10.60;6.75;;;25.30;99.90;;;;;;5065777;28;20506;-71
2023/07/09 05:18:48;;;;;;;9.55;6.68;;;25.40;99.90;;;;;;5101419;27;20415;-71
2023/07/09 05:21:14;;;;;;;12.48;7.35;;;25.40;99.90;;;;;;5100934;27;20962;-71
2023/07/09 05:23:40;;;;;;;8.77;6.68;;;25.50;99.90;;;;;;5076702;28;20410;-71
2023/07/09 05:26:06;;;;;;;13.50;6.97;;;25.60;99.90;;;;;;5072254;28;20505;-71
2023/07/09 05:28:32;;;;;;;12.77;7.35;;;25.60;99.90;;;;;;5054650;28;20404;-71
2023/07/09 05:30:59;;;;;;;12.43;7.30;;;25.70;99.90;;;;;;5103985;27;20494;-71
2023/07/09 05:33:26;;;;;;;12.48;7.28;;;25.70;99.90;;;;;;5071469;28;20514;-71
2023/07/09 05:35:52;;;;;;;13.30;7.72;;;25.80;99.90;;;;;;5072069;28;20426;-71
2023/07/09 05:38:18;;;;;;;10.68;7.00;;;25.80;99.90;;;;;;5101618;27;20440;-71
2023/07/09 05:40:45;;;;;;;10.05;7.05;;;25.90;99.90;;;;;;5069750;28;20911;-71
2023/07/09 05:43:12;;;;;;;11.00;7.20;;;25.90;99.90;;;;;;5070022;28;20415;-71
2023/07/09 05:45:41;;;;;;;11.47;7.07;;;25.90;99.90;;;;;;5068747;28;20400;-72
2023/07/09 05:48:07;;;;;;;13.00;6.97;;;26.00;99.90;;;;;;5074553;28;20931;-72
2023/07/09 05:50:35;;;;;;;11.73;6.63;;;26.00;99.90;;;;;;5071195;28;20415;-71
2023/07/09 05:53:02;;;;;;;12.98;6.68;;;26.00;99.90;;;;;;5066351;28;20529;-71
2023/07/09 05:55:28;;;;;;;10.85;6.30;;;26.10;99.90;;;;;;5072395;28;20413;-71
2023/07/09 05:57:54;;;;;;;10.68;6.60;;;26.20;99.90;;;;;;5072021;28;20470;-71
2023/07/09 06:00:21;;;;;;;11.73;6.22;;;26.30;99.90;;;;;;5065742;28;20838;-72
2023/07/09 06:02:47;;;;;;;9.73;6.13;;;26.40;99.90;;;;;;5076509;28;20403;-72
2023/07/09 06:05:14;;;;;;;9.30;6.03;;;26.50;99.90;;;;;;5073326;28;20407;-72
2023/07/09 06:07:41;;;;;;;12.93;6.65;;;26.60;99.90;;;;;;5074582;28;20415;-71
2023/07/09 06:10:09;;;;;;;11.13;6.45;;;26.80;99.90;;;;;;5071495;28;20454;-71
2023/07/09 06:12:35;;;;;;;12.45;6.43;;;26.80;99.90;;;;;;5102656;27;20407;-71
2023/07/09 06:15:02;;;;;;;11.82;6.38;;;26.90;99.90;;;;;;5081630;28;20399;-71
2023/07/09 06:17:28;;;;;;;10.70;6.50;;;26.90;99.90;;;;;;5090259;27;20406;-71
2023/07/09 06:19:55;;;;;;;13.15;6.30;;;27.00;99.90;;;;;;5067746;28;20537;-71
2023/07/09 06:22:21;;;;;;;13.52;6.80;;;27.10;99.90;;;;;;5073691;28;20414;-71
2023/07/09 06:24:47;;;;;;;10.03;6.80;;;27.20;99.90;;;;;;5061342;28;20920;-71
2023/07/09 06:27:14;;;;;;;10.73;6.75;;;27.20;99.90;;;;;;5074768;28;20417;-71
2023/07/09 06:29:40;;;;;;;11.30;6.63;;;27.40;99.90;;;;;;5069275;28;20404;-71
2023/07/09 06:32:07;;;;;;;11.77;6.57;;;27.60;99.90;;;;;;5066390;28;20411;-72
2023/07/09 06:34:33;;;;;;;12.02;6.68;;;27.60;99.90;;;;;;5069552;28;20407;-71
2023/07/09 06:36:59;;;;;;;10.68;6.57;;;27.70;99.90;;;;;;5077647;28;20512;-71
2023/07/09 06:39:25;;;;;;;10.40;6.40;;;27.70;99.90;;;;;;5076265;28;20410;-71
2023/07/09 06:41:52;;;;;;;10.50;6.43;;;27.90;99.90;;;;;;5076388;28;20417;-71
2023/07/09 06:44:18;;;;;;;10.15;6.43;;;28.00;99.90;;;;;;5076127;28;20411;-71
2023/07/09 06:46:45;;;;;;;15.00;6.95;;;28.00;99.90;;;;;;5066013;28;20412;-71
2023/07/09 06:49:12;;;;;;;10.10;6.50;;;28.10;99.90;;;;;;5087464;27;20411;-71
2023/07/09 06:51:38;;;;;;;11.88;6.07;;;28.20;99.90;;;;;;5069968;28;20416;-71
2023/07/09 06:54:05;;;;;;;11.02;5.90;;;28.30;99.90;;;;;;5077381;28;20405;-71
2023/07/09 06:56:31;;;;;;;12.13;6.17;;;28.30;99.90;;;;;;5107706;27;20472;-71
2023/07/09 06:58:58;;;;;;;10.82;6.13;;;28.40;99.90;;;;;;5074001;28;20453;-71
2023/07/09 07:01:24;;;;;;;9.93;6.22;;;28.50;99.90;;;;;;5075377;28;20461;-71
2023/07/09 07:03:50;;;;;;;13.53;6.60;;;28.70;99.90;;;;;;5090004;27;20413;-71
2023/07/09 07:06:17;;;;;;;12.73;6.30;;;28.70;99.90;;;;;;5074020;28;20414;-71
2023/07/09 07:08:43;;;;;;;9.05;5.85;;;28.70;99.90;;;;;;5064568;28;20402;-72
2023/07/09 07:11:10;;;;;;;12.07;6.47;;;28.80;99.90;;;;;;5069934;28;20413;-71
2023/07/09 07:13:41;;;;;;;10.38;6.03;;;28.90;99.90;;;;;;5069249;28;20410;-72
2023/07/09 07:16:13;;;;;;;12.90;6.18;;;29.00;99.90;;;;;;5071882;28;20457;-72
2023/07/09 07:18:39;;;;;;;11.60;6.25;;;29.00;99.90;;;;;;5067325;28;20553;-71
2023/07/09 07:21:06;;;;;;;14.18;7.57;;;29.10;99.90;;;;;;5067022;28;20421;-72
2023/07/09 07:23:32;;;;;;;13.57;7.63;;;29.00;99.90;;;;;;5073074;28;20438;-71
2023/07/09 07:25:59;;;;;;;11.45;7.70;;;29.00;99.90;;;;;;5068924;28;20408;-71
2023/07/09 07:28:25;;;;;;;15.00;7.57;;;28.80;99.90;;;;;;5063939;28;20402;-71
2023/07/09 07:31:10;;;;;;;12.68;7.53;;;28.80;99.90;;;;;;5073324;28;20410;-71
2023/07/09 07:33:39;;;;;;;13.65;7.78;;;28.90;99.90;;;;;;5067283;28;20450;-72
2023/07/09 07:36:07;;;;;;;15.93;7.07;;;29.00;99.90;;;;;;5064032;28;20447;-72
2023/07/09 07:38:33;;;;;;;11.95;8.02;;;28.90;99.90;;;;;;5064737;28;20424;-71
2023/07/09 07:41:01;;;;;;;12.10;7.72;;;28.90;99.90;;;;;;5052619;28;20414;-71
2023/07/09 07:43:28;;;;;;;15.15;8.00;;;28.80;99.90;;;;;;5070343;28;20411;-72
2023/07/09 07:45:55;;;;;;;15.85;8.27;;;28.90;99.90;;;;;;5073602;28;20633;-72
2023/07/09 07:48:21;;;;;;;12.38;8.10;;;28.90;99.90;;;;;;5069803;28;20405;-71
2023/07/09 07:50:48;;;;;;;16.98;9.05;;;29.00;99.90;;;;;;5070149;28;20432;-72
2023/07/09 07:53:15;;;;;;;16.83;8.75;;;29.10;99.90;;;;;;5073100;28;20394;-71
2023/07/09 07:55:42;;;;;;;19.20;9.20;;;29.20;99.90;;;;;;5073934;28;20413;-72
2023/07/09 07:58:13;;;;;;;16.25;8.23;;;29.20;99.90;;;;;;5054952;28;20399;-71
2023/07/09 08:00:40;;;;;;;13.00;8.45;;;29.00;99.90;;;;;;5050638;28;20910;-71
2023/07/09 08:03:07;;;;;;;19.65;8.73;;;29.10;99.90;;;;;;5068623;28;20409;-71
2023/07/09 08:05:33;;;;;;;14.13;8.18;;;29.20;99.90;;;;;;5070896;28;20414;-72
2023/07/09 08:07:59;;;;;;;13.95;8.65;;;29.20;99.90;;;;;;5064733;28;20455;-71
2023/07/09 08:10:26;;;;;;;16.77;8.32;;;29.30;99.90;;;;;;5061235;28;20578;-71
2023/07/09 08:12:56;;;;;;;17.43;8.50;;;29.40;99.90;;;;;;5053450;28;20482;-71
2023/07/09 08:15:26;;;;;;;17.70;8.50;;;29.40;99.90;;;;;;5078584;28;20505;-71
2023/07/09 08:17:52;;;;;;;14.93;8.20;;;29.40;99.90;;;;;;5058264;28;20468;-71
2023/07/09 08:20:18;;;;;;;15.18;8.48;;;29.60;99.90;;;;;;5098287;27;20410;-71
2023/07/09 08:22:46;;;;;;;15.57;8.38;;;29.80;99.90;;;;;;5072690;28;20401;-71
2023/07/09 08:25:12;;;;;;;15.95;8.63;;;29.90;99.90;;;;;;5077982;28;20450;-71
2023/07/09 08:27:39;;;;;;;14.52;8.30;;;29.90;99.90;;;;;;5102968;27;20781;-72
2023/07/09 08:30:07;;;;;;;16.95;8.20;;;29.90;99.90;;;;;;5074529;28;20419;-72
2023/07/09 08:32:34;;;;;;;15.45;8.02;;;30.10;99.90;;;;;;5070380;28;20440;-71
2023/07/09 08:35:00;;;;;;;17.08;7.88;;;30.20;99.90;;;;;;5078585;28;20849;-73
2023/07/09 08:37:26;;;;;;;17.08;8.02;;;30.20;99.90;;;;;;5085888;27;20901;-71
2023/07/09 08:39:52;;;;;;;16.25;7.75;;;30.30;99.90;;;;;;5068899;28;20896;-71
2023/07/09 08:42:31;;;;;;;16.30;8.07;;;30.30;99.90;;;;;;5072271;28;20411;-72
2023/07/09 08:45:25;;;;;;;15.27;7.83;;;30.20;99.90;;;;;;5065779;28;20421;-72
2023/07/09 08:48:24;;;;;;;14.57;7.55;;;30.10;99.90;;;;;;5062113;28;20423;-72
2023/07/09 08:50:59;;;;;;;14.67;7.27;;;30.20;99.90;;;;;;5068934;28;20422;-71
2023/07/09 08:53:41;;;;;;;15.97;7.90;;;30.30;99.90;;;;;;5071682;28;20411;-71
2023/07/09 08:56:10;;;;;;;15.13;7.40;;;30.40;99.90;;;;;;5063879;28;20411;-71
2023/07/09 08:58:39;;;;;;;15.65;7.20;;;30.60;99.90;;;;;;5093477;28;20924;-72
2023/07/09 09:01:18;;;;;;;12.90;7.50;;;30.70;99.90;;;;;;5072443;28;20434;-71
2023/07/09 09:04:05;;;;;;;15.95;7.47;;;30.90;99.90;;;;;;5071745;28;20540;-71
2023/07/09 09:06:32;;;;;;;14.35;6.93;;;31.00;99.90;;;;;;5077144;28;20417;-72
2023/07/09 09:09:28;;;;;;;16.02;6.90;;;31.00;99.90;;;;;;5056830;28;20433;-72
2023/07/09 09:12:18;;;;;;;14.88;7.00;;;30.90;99.90;;;;;;5078987;28;20407;-71
2023/07/09 09:14:57;;;;;;;12.10;6.97;;;30.90;99.90;;;;;;5082680;28;20416;-71
2023/07/09 09:17:29;;;;;;;16.85;7.13;;;31.20;99.90;;;;;;5076695;28;20946;-71
2023/07/09 09:20:09;;;;;;;13.05;6.88;;;31.20;99.90;;;;;;5081422;28;20867;-71
2023/07/09 09:22:54;;;;;;;14.70;7.22;;;31.20;99.90;;;;;;5075432;28;20950;-72
2023/07/09 09:25:30;;;;;;;12.43;6.90;;;31.50;99.90;;;;;;5077140;28;20414;-71
2023/07/09 09:27:56;;;;;;;13.02;6.78;;;31.50;99.90;;;;;;5066282;28;21184;-71
2023/07/09 09:30:25;;;;;;;11.40;6.50;;;31.60;99.90;;;;;;5062328;28;20410;-71
2023/07/09 09:32:56;;;;;;;15.27;6.70;;;31.60;99.90;;;;;;5083262;28;20418;-72
2023/07/09 09:35:49;;;;;;;12.43;6.85;;;31.50;99.90;;;;;;5110068;27;20427;-71
2023/07/09 09:38:22;;;;;;;10.70;6.85;;;31.60;99.90;;;;;;5084684;28;20403;-72
2023/07/09 09:40:49;;;;;;;12.13;6.03;;;31.80;99.90;;;;;;5081268;28;20920;-71
2023/07/09 09:43:20;;;;;;;13.98;6.13;;;31.60;99.90;;;;;;5079592;28;20413;-72
2023/07/09 09:45:50;;;;;;;11.02;5.70;;;31.90;99.90;;;;;;5082837;28;21060;-71
2023/07/09 09:48:29;;;;;;;13.80;5.75;;;32.10;99.90;;;;;;5081228;28;20405;-72
2023/07/09 09:51:00;;;;;;;11.98;5.57;;;32.40;99.90;;;;;;5074360;28;20414;-72
2023/07/09 09:53:29;;;;;;;12.35;6.40;;;32.30;99.90;;;;;;5080200;28;20468;-72
2023/07/09 09:55:58;;;;;;;15.57;6.40;;;31.90;99.90;;;;;;5061733;28;20774;-71
2023/07/09 09:58:29;;;;;;;14.07;6.00;;;31.80;99.90;;;;;;5075650;28;20435;-72
2023/07/09 10:01:00;;;;;;;11.88;5.90;;;31.80;99.90;;;;;;5075230;28;20892;-71
2023/07/09 10:03:37;;;;;;;10.75;5.88;;;32.00;99.90;;;;;;5063002;28;20445;-72
2023/07/09 10:06:46;;;;;;;11.25;5.80;;;32.20;99.90;;;;;;5077709;28;21083;-72
2023/07/09 10:09:49;;;;;;;11.00;5.77;;;32.10;99.90;;;;;;5058386;28;20420;-72
2023/07/09 10:12:38;;;;;;;13.20;5.95;;;32.10;99.90;;;;;;5072433;28;20912;-72
2023/07/09 10:15:24;;;;;;;11.40;5.45;;;32.00;99.90;;;;;;5105385;27;20414;-72
2023/07/09 10:18:13;;;;;;;11.40;5.45;;;32.10;99.90;;;;;;5069638;28;20408;-71
2023/07/09 10:21:08;;;;;;;14.63;5.77;;;32.20;99.90;;;;;;5076961;28;20512;-71
2023/07/09 10:23:49;;;;;;;10.23;5.63;;;31.90;99.90;;;;;;5078496;28;20397;-72
2023/07/09 10:26:46;;;;;;;9.55;5.22;;;31.90;99.90;;;;;;5109944;27;20423;-72
2023/07/09 10:29:39;;;;;;;9.93;5.28;;;32.00;99.90;;;;;;5074284;28;20496;-72
2023/07/09 10:32:41;;;;;;;10.10;5.25;;;32.10;99.90;;;;;;5070988;28;20533;-72
2023/07/09 10:35:22;;;;;;;11.73;5.50;;;32.10;99.90;;;;;;5080077;28;20397;-71
2023/07/09 10:38:23;;;;;;;10.50;5.10;;;32.10;99.90;;;;;;5080913;28;20430;-72
2023/07/09 10:40:56;;;;;;;13.32;5.70;;;31.90;99.90;;;;;;5077324;28;20805;-72
2023/07/09 10:43:37;;;;;;;12.85;5.50;;;31.70;99.90;;;;;;5080623;28;20406;-71
2023/07/09 10:46:14;;;;;;;12.25;5.10;;;31.70;99.90;;;;;;5111136;27;20413;-71
2023/07/09 10:49:05;;;;;;;11.68;5.28;;;31.70;99.90;;;;;;5079789;28;20413;-71
2023/07/09 10:51:53;;;;;;;9.95;5.05;;;31.70;99.90;;;;;;5073129;28;20419;-72
2023/07/09 10:54:35;;;;;;;9.77;5.37;;;31.70;99.90;;;;;;5075593;28;21103;-72
2023/07/09 10:57:20;;;;;;;10.15;5.07;;;31.70;99.90;;;;;;5074409;28;20406;-72
2023/07/09 10:59:50;;;;;;;12.65;5.50;;;31.70;99.90;;;;;;5076816;28;20414;-71
2023/07/09 11:02:32;;;;;;;12.00;5.15;;;31.70;99.90;;;;;;5106612;27;20498;-72
2023/07/09 11:05:07;;;;;;;12.02;5.05;;;31.70;99.90;;;;;;5071853;28;20403;-72
2023/07/09 11:07:45;;;;;;;10.25;5.13;;;31.70;99.90;;;;;;5077793;28;20413;-71
2023/07/09 11:10:39;;;;;;;10.60;5.03;;;31.40;99.90;;;;;;5073782;28;20410;-72
2023/07/09 11:13:21;;;;;;;10.25;5.40;;;31.30;99.90;;;;;;5073692;28;20467;-72
2023/07/09 11:15:53;;;;;;;12.70;5.80;;;31.40;99.90;;;;;;5082301;28;20480;-72
2023/07/09 11:18:30;;;;;;;10.05;5.50;;;31.30;99.90;;;;;;5093791;28;20403;-71
2023/07/09 11:21:05;;;;;;;10.30;5.43;;;31.40;99.90;;;;;;5079777;28;20400;-71
2023/07/09 11:23:45;;;;;;;12.83;5.27;;;31.50;99.90;;;;;;5072865;28;20450;-72
2023/07/09 11:26:33;;;;;;;13.10;5.35;;;31.30;99.90;;;;;;5069089;28;20791;-72
2023/07/09 11:29:05;;;;;;;9.25;5.05;;;31.30;99.90;;;;;;5075793;28;21022;-72
2023/07/09 11:31:38;;;;;;;9.00;4.75;;;31.30;99.90;;;;;;5068630;28;20975;-72
2023/07/09 11:34:19;;;;;;;12.40;5.00;;;31.30;99.90;;;;;;5077450;28;20412;-72
2023/07/09 11:37:01;;;;;;;9.57;5.22;;;31.30;99.90;;;;;;5074430;28;20517;-71
2023/07/09 11:39:38;;;;;;;10.98;5.22;;;31.30;99.90;;;;;;5077392;28;20479;-72
2023/07/09 11:42:27;;;;;;;10.90;5.32;;;31.30;99.90;;;;;;5071225;28;20482;-71
2023/07/09 11:45:11;;;;;;;11.00;5.32;;;31.20;99.90;;;;;;5073611;28;20494;-71
2023/07/09 11:48:09;;;;;;;10.47;5.27;;;31.20;99.90;;;;;;5072516;28;20412;-72
2023/07/09 11:50:44;;;;;;;8.93;5.10;;;31.20;99.90;;;;;;5069428;28;20404;-71
2023/07/09 11:53:25;;;;;;;8.93;4.70;;;31.20;99.90;;;;;;5070496;28;20419;-71
2023/07/09 11:55:51;;;;;;;11.68;4.90;;;31.20;99.90;;;;;;5072604;28;20483;-72
2023/07/09 11:58:19;;;;;;;10.57;4.60;;;31.30;99.90;;;;;;5074075;28;20504;-71
2023/07/09 12:00:56;;;;;;;10.83;4.80;;;31.30;99.90;;;;;;5072201;28;21049;-71
2023/07/09 12:03:37;;;;;;;10.13;4.43;;;31.30;99.90;;;;;;5071837;28;20486;-71
2023/07/09 12:06:14;;;;;;;10.50;4.10;;;31.30;99.90;;;;;;5069586;28;20417;-71
2023/07/09 12:08:43;;;;;;;8.48;4.40;;;31.30;99.90;;;;;;5067422;28;21220;-72
2023/07/09 12:11:31;;;;;;;8.52;4.40;;;31.30;99.90;;;;;;5075716;28;20398;-71
2023/07/09 12:14:15;;;;;;;12.73;5.27;;;31.30;99.90;;;;;;5103987;27;20414;-71
2023/07/09 12:16:45;;;;;;;11.48;4.75;;;31.30;99.90;;;;;;5077453;28;20418;-72
2023/07/09 12:19:14;;;;;;;8.60;4.63;;;31.20;99.90;;;;;;5076012;28;21058;-72
2023/07/09 12:21:44;;;;;;;10.02;4.72;;;31.20;99.90;;;;;;5073497;28;20411;-72
2023/07/09 12:24:26;;;;;;;11.45;4.97;;;31.10;99.90;;;;;;5077984;28;20454;-71
2023/07/09 12:27:02;;;;;;;14.40;5.30;;;31.20;99.90;;;;;;5103203;27;20951;-72
2023/07/09 12:29:35;;;;;;;9.87;5.10;;;31.30;99.90;;;;;;5087843;28;20737;-72
2023/07/09 12:32:14;;;;;;;10.43;5.10;;;31.10;99.90;;;;;;5076311;28;20489;-72
2023/07/09 12:34:41;;;;;;;9.52;4.90;;;31.20;99.90;;;;;;5081102;28;20407;-72
2023/07/09 12:37:18;;;;;;;8.95;5.13;;;31.20;99.90;;;;;;5066554;28;20540;-71
2023/07/09 12:39:45;;;;;;;10.35;5.00;;;31.20;99.90;;;;;;5076614;28;20766;-71
2023/07/09 12:42:31;;;;;;;10.27;5.30;;;31.20;99.90;;;;;;5075886;28;20422;-72
2023/07/09 12:44:58;;;;;;;9.77;5.30;;;31.20;99.90;;;;;;5079570;28;20414;-72
2023/07/09 12:47:25;;;;;;;10.15;5.30;;;31.20;99.90;;;;;;5077881;28;20470;-71
2023/07/09 12:50:10;;;;;;;10.83;5.43;;;31.20;99.90;;;;;;5077390;28;20414;-71
2023/07/09 12:52:47;;;;;;;14.43;5.80;;;31.10;99.90;;;;;;5069545;28;20406;-72
2023/07/09 12:55:26;;;;;;;12.00;5.70;;;31.20;99.90;;;;;;5074328;28;20415;-72
2023/07/09 12:57:59;;;;;;;10.05;5.90;;;31.20;99.90;;;;;;5078567;28;20741;-72
2023/07/09 13:00:32;;;;;;;16.20;6.10;;;31.20;99.90;;;;;;5071967;28;20407;-71
2023/07/09 13:03:00;;;;;;;10.60;5.53;;;31.20;99.90;;;;;;5083231;28;20394;-71
2023/07/09 13:05:27;;;;;;;11.90;6.00;;;31.20;99.90;;;;;;5074802;28;20407;-71